sensor_id;sensor_type;location;lat;lon;timestamp;P1;durP1;ratioP1;P2;durP2;ratioP2
64018;SDS011;66942;52.138;5.216;2023-03-01T00:01:09;24.9;;;22.2;;
64018;SDS011;66942;52.138;5.216;2023-03-01T00:02:49;25.4;;;22.2;;
64018;SDS011;66942;52.138;5.216;2023-03-01T00:04:25;29.8;;;24.4;;
64018;SDS011;66942;52.138;5.216;2023-03-01T00:07:40;35.21;;;28.6;;
64018;SDS011;66942;52.138;5.216;2023-03-01T00:09:16;35.21;;;29.2;;
64018;SDS011;66942;52.138;5.216;2023-03-01T00:11:01;34.21;;;29.1;;
64018;SDS011;66942;52.138;5.216;2023-03-01T00:12:39;34.31;;;27.6;;
64018;SDS011;66942;52.138;5.216;2023-03-01T00:15:51;33.21;;;27.8;;
64018;SDS011;66942;52.138;5.216;2023-03-01T00:17:28;27.4;;;24.5;;
64018;SDS011;66942;52.138;5.216;2023-03-01T00:19:04;28.8;;;25.3;;
64018;SDS011;66942;52.138;5.216;2023-03-01T00:22:17;30.4;;;27.1;;
64018;SDS011;66942;52.138;5.216;2023-03-01T00:23:53;34.9;;;29.2;;
64018;SDS011;66942;52.138;5.216;2023-03-01T00:25:30;31.6;;;28.2;;
64018;SDS011;66942;52.138;5.216;2023-03-01T00:28:43;30.4;;;27.1;;
64018;SDS011;66942;52.138;5.216;2023-03-01T00:30:20;30.4;;;27.1;;
64018;SDS011;66942;52.138;5.216;2023-03-01T00:31:56;23.7;;;21.3;;
64018;SDS011;66942;52.138;5.216;2023-03-01T00:33:32;32.4;;;24.7;;
64018;SDS011;66942;52.138;5.216;2023-03-01T00:36:45;35.6;;;26.3;;
64018;SDS011;66942;52.138;5.216;2023-03-01T00:38:22;44.1;;;31.8;;
64018;SDS011;66942;52.138;5.216;2023-03-01T00:39:58;46.6;;;31.8;;
64018;SDS011;66942;52.138;5.216;2023-03-01T00:43:10;40.5;;;29.1;;
64018;SDS011;66942;52.138;5.216;2023-03-01T00:44:46;45.9;;;31.2;;
64018;SDS011;66942;52.138;5.216;2023-03-01T00:46:24;47.4;;;32.71;;
64018;SDS011;66942;52.138;5.216;2023-03-01T00:49:38;42.5;;;30.6;;
64018;SDS011;66942;52.138;5.216;2023-03-01T00:51:15;31.0;;;26.8;;
64018;SDS011;66942;52.138;5.216;2023-03-01T00:52:53;25.9;;;23.2;;
64018;SDS011;66942;52.138;5.216;2023-03-01T00:54:30;31.8;;;28.5;;
64018;SDS011;66942;52.138;5.216;2023-03-01T00:57:45;26.4;;;23.9;;
64018;SDS011;66942;52.138;5.216;2023-03-01T00:59:21;24.8;;;22.6;;
64018;SDS011;66942;52.138;5.216;2023-03-01T01:00:58;25.0;;;22.7;;
64018;SDS011;66942;52.138;5.216;2023-03-01T01:04:12;28.2;;;25.4;;
64018;SDS011;66942;52.138;5.216;2023-03-01T01:05:49;29.4;;;26.6;;
64018;SDS011;66942;52.138;5.216;2023-03-01T01:07:25;30.1;;;27.2;;
64018;SDS011;66942;52.138;5.216;2023-03-01T01:10:43;28.8;;;26.1;;
64018;SDS011;66942;52.138;5.216;2023-03-01T01:12:20;24.2;;;22.3;;
64018;SDS011;66942;52.138;5.216;2023-03-01T01:13:56;29.2;;;26.5;;
64018;SDS011;66942;52.138;5.216;2023-03-01T01:15:33;33.0;;;29.6;;
64018;SDS011;66942;52.138;5.216;2023-03-01T01:18:46;35.1;;;31.7;;
64018;SDS011;66942;52.138;5.216;2023-03-01T01:20:22;34.31;;;30.8;;
64018;SDS011;66942;52.138;5.216;2023-03-01T01:21:58;36.4;;;32.8;;
64018;SDS011;66942;52.138;5.216;2023-03-01T01:25:12;35.71;;;32.21;;
64018;SDS011;66942;52.138;5.216;2023-03-01T01:26:48;33.5;;;30.4;;
64018;SDS011;66942;52.138;5.216;2023-03-01T01:28:25;32.9;;;29.5;;
64018;SDS011;66942;52.138;5.216;2023-03-01T01:30:01;33.8;;;30.7;;
64018;SDS011;66942;52.138;5.216;2023-03-01T01:33:17;33.8;;;30.3;;
64018;SDS011;66942;52.138;5.216;2023-03-01T01:34:53;33.3;;;30.0;;
64018;SDS011;66942;52.138;5.216;2023-03-01T01:36:30;36.9;;;33.21;;
64018;SDS011;66942;52.138;5.216;2023-03-01T01:39:45;36.31;;;32.8;;
64018;SDS011;66942;52.138;5.216;2023-03-01T01:41:21;39.21;;;35.31;;
64018;SDS011;66942;52.138;5.216;2023-03-01T01:42:59;33.5;;;30.3;;
64018;SDS011;66942;52.138;5.216;2023-03-01T01:46:15;37.31;;;33.6;;
64018;SDS011;66942;52.138;5.216;2023-03-01T01:47:57;40.31;;;36.31;;
64018;SDS011;66942;52.138;5.216;2023-03-01T01:49:40;35.5;;;31.9;;
64018;SDS011;66942;52.138;5.216;2023-03-01T01:51:21;36.81;;;32.9;;
64018;SDS011;66942;52.138;5.216;2023-03-01T01:53:01;38.4;;;34.6;;
64018;SDS011;66942;52.138;5.216;2023-03-01T01:56:21;38.0;;;34.21;;
64018;SDS011;66942;52.138;5.216;2023-03-01T01:58:02;36.31;;;32.71;;
64018;SDS011;66942;52.138;5.216;2023-03-01T01:59:43;38.21;;;34.4;;
64018;SDS011;66942;52.138;5.216;2023-03-01T02:01:25;39.6;;;35.5;;
64018;SDS011;66942;52.138;5.216;2023-03-01T02:04:44;35.1;;;31.7;;
64018;SDS011;66942;52.138;5.216;2023-03-01T02:06:24;38.5;;;34.6;;
64018;SDS011;66942;52.138;5.216;2023-03-01T02:08:05;40.5;;;36.21;;
64018;SDS011;66942;52.138;5.216;2023-03-01T02:09:45;43.0;;;38.6;;
64018;SDS011;66942;52.138;5.216;2023-03-01T02:13:03;32.1;;;29.3;;
64018;SDS011;66942;52.138;5.216;2023-03-01T02:14:40;38.1;;;34.4;;
64018;SDS011;66942;52.138;5.216;2023-03-01T02:16:16;39.81;;;35.81;;
64018;SDS011;66942;52.138;5.216;2023-03-01T02:19:35;41.1;;;36.9;;
64018;SDS011;66942;52.138;5.216;2023-03-01T02:21:37;43.6;;;38.9;;
64018;SDS011;66942;52.138;5.216;2023-03-01T02:23:24;43.3;;;38.81;;
64018;SDS011;66942;52.138;5.216;2023-03-01T02:25:03;42.8;;;38.5;;
64018;SDS011;66942;52.138;5.216;2023-03-01T02:26:51;45.2;;;40.4;;
64018;SDS011;66942;52.138;5.216;2023-03-01T02:30:09;37.4;;;33.71;;
64018;SDS011;66942;52.138;5.216;2023-03-01T02:31:46;40.9;;;36.9;;
64018;SDS011;66942;52.138;5.216;2023-03-01T02:33:23;38.31;;;34.5;;
64018;SDS011;66942;52.138;5.216;2023-03-01T02:35:01;43.0;;;38.5;;
64018;SDS011;66942;52.138;5.216;2023-03-01T02:38:18;43.0;;;38.5;;
64018;SDS011;66942;52.138;5.216;2023-03-01T02:39:57;41.9;;;37.71;;
64018;SDS011;66942;52.138;5.216;2023-03-01T02:41:37;41.5;;;37.1;;
64018;SDS011;66942;52.138;5.216;2023-03-01T02:43:17;41.9;;;37.6;;
64018;SDS011;66942;52.138;5.216;2023-03-01T02:46:34;38.21;;;34.6;;
64018;SDS011;66942;52.138;5.216;2023-03-01T02:48:18;42.5;;;38.0;;
64018;SDS011;66942;52.138;5.216;2023-03-01T02:49:55;40.4;;;36.4;;
64018;SDS011;66942;52.138;5.216;2023-03-01T02:53:25;41.6;;;37.31;;
64018;SDS011;66942;52.138;5.216;2023-03-01T02:55:10;45.1;;;40.6;;
64018;SDS011;66942;52.138;5.216;2023-03-01T02:56:49;40.4;;;36.4;;
64018;SDS011;66942;52.138;5.216;2023-03-01T02:58:27;44.3;;;39.81;;
64018;SDS011;66942;52.138;5.216;2023-03-01T03:00:04;46.4;;;41.4;;
64018;SDS011;66942;52.138;5.216;2023-03-01T03:03:20;42.4;;;38.0;;
64018;SDS011;66942;52.138;5.216;2023-03-01T03:04:57;43.4;;;38.71;;
64018;SDS011;66942;52.138;5.216;2023-03-01T03:06:33;42.1;;;37.6;;
64018;SDS011;66942;52.138;5.216;2023-03-01T03:09:46;45.0;;;40.31;;
64018;SDS011;66942;52.138;5.216;2023-03-01T03:11:22;42.4;;;37.9;;
64018;SDS011;66942;52.138;5.216;2023-03-01T03:12:59;39.31;;;35.31;;
64018;SDS011;66942;52.138;5.216;2023-03-01T03:14:37;38.31;;;34.4;;
64018;SDS011;66942;52.138;5.216;2023-03-01T03:17:50;44.2;;;39.6;;
64018;SDS011;66942;52.138;5.216;2023-03-01T03:19:28;43.7;;;39.0;;
64018;SDS011;66942;52.138;5.216;2023-03-01T03:21:06;45.9;;;40.9;;
64018;SDS011;66942;52.138;5.216;2023-03-01T03:24:19;42.0;;;37.6;;
64018;SDS011;66942;52.138;5.216;2023-03-01T03:25:55;45.9;;;40.9;;
64018;SDS011;66942;52.138;5.216;2023-03-01T03:27:31;45.0;;;40.4;;
64018;SDS011;66942;52.138;5.216;2023-03-01T03:30:44;42.4;;;38.0;;
64018;SDS011;66942;52.138;5.216;2023-03-01T03:32:20;44.3;;;39.5;;
64018;SDS011;66942;52.138;5.216;2023-03-01T03:33:56;44.5;;;39.81;;
64018;SDS011;66942;52.138;5.216;2023-03-01T03:35:33;44.5;;;39.81;;
64018;SDS011;66942;52.138;5.216;2023-03-01T03:38:51;40.31;;;36.21;;
64018;SDS011;66942;52.138;5.216;2023-03-01T03:40:28;44.6;;;39.1;;
64018;SDS011;66942;52.138;5.216;2023-03-01T03:42:08;43.4;;;38.9;;
64018;SDS011;66942;52.138;5.216;2023-03-01T03:45:20;41.9;;;37.4;;
64018;SDS011;66942;52.138;5.216;2023-03-01T03:46:56;39.71;;;35.5;;
64018;SDS011;66942;52.138;5.216;2023-03-01T03:48:32;38.9;;;34.81;;
64018;SDS011;66942;52.138;5.216;2023-03-01T03:50:10;40.1;;;35.9;;
64018;SDS011;66942;52.138;5.216;2023-03-01T03:53:24;37.1;;;33.3;;
64018;SDS011;66942;52.138;5.216;2023-03-01T03:55:03;44.7;;;40.0;;
64018;SDS011;66942;52.138;5.216;2023-03-01T03:56:40;39.81;;;35.9;;
64018;SDS011;66942;52.138;5.216;2023-03-01T03:59:54;38.0;;;34.21;;
64018;SDS011;66942;52.138;5.216;2023-03-01T04:01:30;36.9;;;33.4;;
64018;SDS011;66942;52.138;5.216;2023-03-01T04:03:07;42.5;;;38.0;;
64018;SDS011;66942;52.138;5.216;2023-03-01T04:06:21;41.3;;;37.1;;
64018;SDS011;66942;52.138;5.216;2023-03-01T04:07:58;42.3;;;37.71;;
64018;SDS011;66942;52.138;5.216;2023-03-01T04:09:35;44.8;;;40.0;;
64018;SDS011;66942;52.138;5.216;2023-03-01T04:11:11;39.1;;;35.21;;
64018;SDS011;66942;52.138;5.216;2023-03-01T04:14:24;39.71;;;35.5;;
64018;SDS011;66942;52.138;5.216;2023-03-01T04:16:00;37.6;;;33.71;;
64018;SDS011;66942;52.138;5.216;2023-03-01T04:17:37;46.0;;;41.2;;
64018;SDS011;66942;52.138;5.216;2023-03-01T04:20:49;42.2;;;37.71;;
64018;SDS011;66942;52.138;5.216;2023-03-01T04:22:26;37.4;;;33.71;;
64018;SDS011;66942;52.138;5.216;2023-03-01T04:24:02;37.9;;;34.21;;
64018;SDS011;66942;52.138;5.216;2023-03-01T04:27:17;43.7;;;39.0;;
64018;SDS011;66942;52.138;5.216;2023-03-01T04:28:53;41.7;;;37.6;;
64018;SDS011;66942;52.138;5.216;2023-03-01T04:30:30;45.4;;;40.6;;
64018;SDS011;66942;52.138;5.216;2023-03-01T04:32:06;34.31;;;31.0;;
64018;SDS011;66942;52.138;5.216;2023-03-01T04:35:20;39.31;;;35.31;;
64018;SDS011;66942;52.138;5.216;2023-03-01T04:36:56;40.21;;;36.1;;
64018;SDS011;66942;52.138;5.216;2023-03-01T04:38:32;43.0;;;38.5;;
64018;SDS011;66942;52.138;5.216;2023-03-01T04:41:46;39.6;;;35.71;;
64018;SDS011;66942;52.138;5.216;2023-03-01T04:43:23;40.9;;;36.6;;
64018;SDS011;66942;52.138;5.216;2023-03-01T04:44:59;37.71;;;33.9;;
64018;SDS011;66942;52.138;5.216;2023-03-01T04:46:35;37.21;;;33.5;;
64018;SDS011;66942;52.138;5.216;2023-03-01T04:49:48;38.31;;;34.5;;
64018;SDS011;66942;52.138;5.216;2023-03-01T04:51:25;36.81;;;33.0;;
64018;SDS011;66942;52.138;5.216;2023-03-01T04:53:01;37.0;;;33.21;;
64018;SDS011;66942;52.138;5.216;2023-03-01T04:56:14;40.5;;;36.31;;
64018;SDS011;66942;52.138;5.216;2023-03-01T04:57:51;35.31;;;32.0;;
64018;SDS011;66942;52.138;5.216;2023-03-01T04:59:29;36.0;;;32.5;;
64018;SDS011;66942;52.138;5.216;2023-03-01T05:02:47;41.1;;;36.81;;
64018;SDS011;66942;52.138;5.216;2023-03-01T05:04:24;37.5;;;33.8;;
64018;SDS011;66942;52.138;5.216;2023-03-01T05:06:00;45.2;;;40.5;;
64018;SDS011;66942;52.138;5.216;2023-03-01T05:07:36;37.81;;;34.0;;
64018;SDS011;66942;52.138;5.216;2023-03-01T05:10:49;38.71;;;34.81;;
64018;SDS011;66942;52.138;5.216;2023-03-01T05:12:28;46.4;;;41.4;;
64018;SDS011;66942;52.138;5.216;2023-03-01T05:17:18;40.71;;;36.5;;
64018;SDS011;66942;52.138;5.216;2023-03-01T05:18:54;42.3;;;37.9;;
64018;SDS011;66942;52.138;5.216;2023-03-01T05:20:30;35.31;;;31.9;;
64018;SDS011;66942;52.138;5.216;2023-03-01T05:23:43;42.1;;;37.71;;
64018;SDS011;66942;52.138;5.216;2023-03-01T05:25:20;38.9;;;34.9;;
64018;SDS011;66942;52.138;5.216;2023-03-01T05:26:57;39.0;;;34.71;;
64018;SDS011;66942;52.138;5.216;2023-03-01T05:28:34;43.1;;;38.4;;
64018;SDS011;66942;52.138;5.216;2023-03-01T05:31:48;44.4;;;39.6;;
64018;SDS011;66942;52.138;5.216;2023-03-01T05:33:25;40.4;;;36.31;;
64018;SDS011;66942;52.138;5.216;2023-03-01T05:35:03;34.71;;;31.5;;
64018;SDS011;66942;52.138;5.216;2023-03-01T05:38:16;35.5;;;32.21;;
64018;SDS011;66942;52.138;5.216;2023-03-01T05:39:52;38.81;;;34.9;;
64018;SDS011;66942;52.138;5.216;2023-03-01T05:41:28;38.9;;;34.9;;
64018;SDS011;66942;52.138;5.216;2023-03-01T05:43:04;40.71;;;36.6;;
64018;SDS011;66942;52.138;5.216;2023-03-01T05:46:18;46.2;;;41.0;;
64018;SDS011;66942;52.138;5.216;2023-03-01T05:47:54;44.8;;;40.1;;
64018;SDS011;66942;52.138;5.216;2023-03-01T05:49:31;38.21;;;34.31;;
64018;SDS011;66942;52.138;5.216;2023-03-01T05:52:43;43.7;;;38.9;;
64018;SDS011;66942;52.138;5.216;2023-03-01T05:54:21;45.2;;;40.4;;
64018;SDS011;66942;52.138;5.216;2023-03-01T05:55:58;43.3;;;38.81;;
64018;SDS011;66942;52.138;5.216;2023-03-01T05:59:11;44.3;;;39.71;;
64018;SDS011;66942;52.138;5.216;2023-03-01T06:00:47;42.9;;;38.31;;
64018;SDS011;66942;52.138;5.216;2023-03-01T06:02:24;40.21;;;36.1;;
64018;SDS011;66942;52.138;5.216;2023-03-01T06:04:00;34.31;;;31.1;;
64018;SDS011;66942;52.138;5.216;2023-03-01T06:07:15;35.6;;;32.3;;
64018;SDS011;66942;52.138;5.216;2023-03-01T06:08:51;41.7;;;37.4;;
64018;SDS011;66942;52.138;5.216;2023-03-01T06:10:28;41.2;;;36.9;;
64018;SDS011;66942;52.138;5.216;2023-03-01T06:13:42;35.9;;;32.4;;
64018;SDS011;66942;52.138;5.216;2023-03-01T06:15:19;41.1;;;37.0;;
64018;SDS011;66942;52.138;5.216;2023-03-01T06:16:57;44.5;;;39.81;;
64018;SDS011;66942;52.138;5.216;2023-03-01T06:20:12;44.9;;;40.21;;
64018;SDS011;66942;52.138;5.216;2023-03-01T06:21:50;44.4;;;39.6;;
64018;SDS011;66942;52.138;5.216;2023-03-01T06:23:26;44.5;;;38.71;;
64018;SDS011;66942;52.138;5.216;2023-03-01T06:25:03;40.71;;;36.5;;
64018;SDS011;66942;52.138;5.216;2023-03-01T06:28:16;44.7;;;39.81;;
64018;SDS011;66942;52.138;5.216;2023-03-01T06:29:53;40.71;;;36.5;;
64018;SDS011;66942;52.138;5.216;2023-03-01T06:31:29;42.1;;;37.6;;
64018;SDS011;66942;52.138;5.216;2023-03-01T06:34:41;43.9;;;39.21;;
64018;SDS011;66942;52.138;5.216;2023-03-01T06:36:17;44.0;;;39.31;;
64018;SDS011;66942;52.138;5.216;2023-03-01T06:37:53;41.7;;;37.21;;
64018;SDS011;66942;52.138;5.216;2023-03-01T06:41:06;41.8;;;37.4;;
64018;SDS011;66942;52.138;5.216;2023-03-01T06:42:43;43.4;;;38.9;;
64018;SDS011;66942;52.138;5.216;2023-03-01T06:44:25;37.1;;;33.4;;
64018;SDS011;66942;52.138;5.216;2023-03-01T06:46:03;36.31;;;32.71;;
64018;SDS011;66942;52.138;5.216;2023-03-01T06:49:16;47.3;;;42.1;;
64018;SDS011;66942;52.138;5.216;2023-03-01T06:50:52;45.3;;;40.5;;
64018;SDS011;66942;52.138;5.216;2023-03-01T06:52:29;43.1;;;38.71;;
64018;SDS011;66942;52.138;5.216;2023-03-01T06:55:43;51.2;;;44.3;;
64018;SDS011;66942;52.138;5.216;2023-03-01T06:57:19;76.11;;;54.1;;
64018;SDS011;66942;52.138;5.216;2023-03-01T06:58:55;167.8;;;89.2;;
64018;SDS011;66942;52.138;5.216;2023-03-01T07:00:31;211.5;;;105.3;;
64018;SDS011;66942;52.138;5.216;2023-03-01T07:03:46;181.0;;;94.1;;
64018;SDS011;66942;52.138;5.216;2023-03-01T07:05:23;228.1;;;115.5;;
64018;SDS011;66942;52.138;5.216;2023-03-01T07:06:59;141.9;;;91.7;;
64018;SDS011;66942;52.138;5.216;2023-03-01T07:10:11;80.0;;;58.8;;
64018;SDS011;66942;52.138;5.216;2023-03-01T07:11:48;118.8;;;79.91;;
64018;SDS011;66942;52.138;5.216;2023-03-01T07:13:25;41.7;;;37.5;;
64018;SDS011;66942;52.138;5.216;2023-03-01T07:16:40;53.6;;;43.4;;
64018;SDS011;66942;52.138;5.216;2023-03-01T07:18:16;55.9;;;48.6;;
64018;SDS011;66942;52.138;5.216;2023-03-01T07:19:52;54.9;;;46.8;;
64018;SDS011;66942;52.138;5.216;2023-03-01T07:21:29;49.0;;;43.9;;
64018;SDS011;66942;52.138;5.216;2023-03-01T07:24:42;46.6;;;41.7;;
64018;SDS011;66942;52.138;5.216;2023-03-01T07:26:19;45.8;;;41.2;;
64018;SDS011;66942;52.138;5.216;2023-03-01T07:27:55;44.0;;;39.5;;
64018;SDS011;66942;52.138;5.216;2023-03-01T07:31:07;42.9;;;38.71;;
64018;SDS011;66942;52.138;5.216;2023-03-01T07:32:43;40.31;;;36.6;;
64018;SDS011;66942;52.138;5.216;2023-03-01T07:34:20;46.9;;;42.3;;
64018;SDS011;66942;52.138;5.216;2023-03-01T07:37:33;45.5;;;40.9;;
64018;SDS011;66942;52.138;5.216;2023-03-01T07:39:09;46.5;;;42.0;;
64018;SDS011;66942;52.138;5.216;2023-03-01T07:40:46;46.0;;;41.6;;
64018;SDS011;66942;52.138;5.216;2023-03-01T07:42:22;46.4;;;41.6;;
64018;SDS011;66942;52.138;5.216;2023-03-01T07:45:35;42.6;;;38.4;;
64018;SDS011;66942;52.138;5.216;2023-03-01T07:47:11;40.9;;;37.0;;
64018;SDS011;66942;52.138;5.216;2023-03-01T07:48:47;42.4;;;38.31;;
64018;SDS011;66942;52.138;5.216;2023-03-01T07:51:59;43.5;;;39.31;;
64018;SDS011;66942;52.138;5.216;2023-03-01T07:53:35;45.1;;;40.5;;
64018;SDS011;66942;52.138;5.216;2023-03-01T07:55:13;43.1;;;38.81;;
64018;SDS011;66942;52.138;5.216;2023-03-01T07:58:26;47.6;;;42.7;;
64018;SDS011;66942;52.138;5.216;2023-03-01T08:00:03;45.2;;;40.71;;
64018;SDS011;66942;52.138;5.216;2023-03-01T08:01:40;43.7;;;39.31;;
64018;SDS011;66942;52.138;5.216;2023-03-01T08:03:16;45.6;;;41.1;;
64018;SDS011;66942;52.138;5.216;2023-03-01T08:06:29;46.0;;;41.2;;
64018;SDS011;66942;52.138;5.216;2023-03-01T08:08:05;42.2;;;38.1;;
64018;SDS011;66942;52.138;5.216;2023-03-01T08:09:41;41.2;;;37.31;;
64018;SDS011;66942;52.138;5.216;2023-03-01T08:12:54;43.1;;;38.81;;
64018;SDS011;66942;52.138;5.216;2023-03-01T08:14:30;41.3;;;37.31;;
64018;SDS011;66942;52.138;5.216;2023-03-01T08:16:07;44.1;;;39.81;;
64018;SDS011;66942;52.138;5.216;2023-03-01T08:19:25;38.31;;;34.71;;
64018;SDS011;66942;52.138;5.216;2023-03-01T08:21:02;33.9;;;31.1;;
64018;SDS011;66942;52.138;5.216;2023-03-01T08:22:40;35.9;;;32.8;;
64018;SDS011;66942;52.138;5.216;2023-03-01T08:24:16;36.1;;;32.8;;
64018;SDS011;66942;52.138;5.216;2023-03-01T08:27:28;34.81;;;31.8;;
64018;SDS011;66942;52.138;5.216;2023-03-01T08:29:04;33.1;;;30.3;;
64018;SDS011;66942;52.138;5.216;2023-03-01T08:30:40;33.1;;;30.3;;
64018;SDS011;66942;52.138;5.216;2023-03-01T08:33:54;36.31;;;33.0;;
64018;SDS011;66942;52.138;5.216;2023-03-01T08:35:33;32.3;;;29.4;;
64018;SDS011;66942;52.138;5.216;2023-03-01T08:37:09;34.1;;;30.9;;
64018;SDS011;66942;52.138;5.216;2023-03-01T08:40:21;32.3;;;29.5;;
64018;SDS011;66942;52.138;5.216;2023-03-01T08:41:58;32.4;;;29.3;;
64018;SDS011;66942;52.138;5.216;2023-03-01T08:43:34;30.6;;;27.7;;
64018;SDS011;66942;52.138;5.216;2023-03-01T08:45:10;31.5;;;28.6;;
64018;SDS011;66942;52.138;5.216;2023-03-01T08:48:23;34.6;;;31.4;;
64018;SDS011;66942;52.138;5.216;2023-03-01T08:50:00;24.1;;;22.0;;
64018;SDS011;66942;52.138;5.216;2023-03-01T08:51:38;29.8;;;27.2;;
64018;SDS011;66942;52.138;5.216;2023-03-01T08:54:51;26.1;;;23.8;;
64018;SDS011;66942;52.138;5.216;2023-03-01T08:56:27;27.8;;;25.5;;
64018;SDS011;66942;52.138;5.216;2023-03-01T08:58:03;23.1;;;21.3;;
64018;SDS011;66942;52.138;5.216;2023-03-01T09:01:16;21.5;;;19.8;;
64018;SDS011;66942;52.138;5.216;2023-03-01T09:02:55;18.3;;;16.8;;
64018;SDS011;66942;52.138;5.216;2023-03-01T09:04:31;17.11;;;15.7;;
64018;SDS011;66942;52.138;5.216;2023-03-01T09:06:07;17.0;;;15.8;;
64018;SDS011;66942;52.138;5.216;2023-03-01T09:09:20;18.0;;;16.7;;
64018;SDS011;66942;52.138;5.216;2023-03-01T09:10:56;19.2;;;17.8;;
64018;SDS011;66942;52.138;5.216;2023-03-01T09:12:32;16.0;;;14.9;;
64018;SDS011;66942;52.138;5.216;2023-03-01T09:15:45;17.5;;;16.2;;
64018;SDS011;66942;52.138;5.216;2023-03-01T09:17:21;15.9;;;14.7;;
64018;SDS011;66942;52.138;5.216;2023-03-01T09:18:57;17.0;;;15.6;;
64018;SDS011;66942;52.138;5.216;2023-03-01T09:22:09;16.5;;;15.2;;
64018;SDS011;66942;52.138;5.216;2023-03-01T09:23:46;15.0;;;14.0;;
64018;SDS011;66942;52.138;5.216;2023-03-01T09:25:24;16.8;;;15.6;;
64018;SDS011;66942;52.138;5.216;2023-03-01T09:27:00;15.0;;;14.0;;
64018;SDS011;66942;52.138;5.216;2023-03-01T09:30:13;14.9;;;13.8;;
64018;SDS011;66942;52.138;5.216;2023-03-01T09:31:49;14.4;;;13.4;;
64018;SDS011;66942;52.138;5.216;2023-03-01T09:33:26;14.9;;;13.9;;
64018;SDS011;66942;52.138;5.216;2023-03-01T09:36:40;15.9;;;14.6;;
64018;SDS011;66942;52.138;5.216;2023-03-01T09:38:16;14.8;;;13.8;;
64018;SDS011;66942;52.138;5.216;2023-03-01T09:39:52;14.2;;;13.2;;
64018;SDS011;66942;52.138;5.216;2023-03-01T09:43:34;12.5;;;11.7;;
64018;SDS011;66942;52.138;5.216;2023-03-01T09:45:26;12.5;;;11.6;;
64018;SDS011;66942;52.138;5.216;2023-03-01T09:47:09;12.2;;;11.4;;
64018;SDS011;66942;52.138;5.216;2023-03-01T09:48:55;11.8;;;11.0;;
64018;SDS011;66942;52.138;5.216;2023-03-01T09:50:38;11.3;;;10.3;;
64018;SDS011;66942;52.138;5.216;2023-03-01T09:52:19;12.1;;;11.3;;
64018;SDS011;66942;52.138;5.216;2023-03-01T09:55:43;11.3;;;10.6;;
64018;SDS011;66942;52.138;5.216;2023-03-01T09:57:25;11.6;;;10.8;;
64018;SDS011;66942;52.138;5.216;2023-03-01T09:59:09;10.8;;;10.0;;
64018;SDS011;66942;52.138;5.216;2023-03-01T10:00:59;10.7;;;10.0;;
64018;SDS011;66942;52.138;5.216;2023-03-01T10:02:47;10.8;;;10.0;;
64018;SDS011;66942;52.138;5.216;2023-03-01T10:06:18;11.6;;;10.8;;
64018;SDS011;66942;52.138;5.216;2023-03-01T10:08:01;9.9;;;9.1;;
64018;SDS011;66942;52.138;5.216;2023-03-01T10:10:01;12.3;;;11.4;;
64018;SDS011;66942;52.138;5.216;2023-03-01T10:11:41;12.2;;;11.4;;
64018;SDS011;66942;52.138;5.216;2023-03-01T10:13:21;11.1;;;10.3;;
64018;SDS011;66942;52.138;5.216;2023-03-01T10:15:04;11.0;;;10.3;;
64018;SDS011;66942;52.138;5.216;2023-03-01T10:18:29;11.4;;;10.6;;
64018;SDS011;66942;52.138;5.216;2023-03-01T10:20:17;11.4;;;10.6;;
64018;SDS011;66942;52.138;5.216;2023-03-01T10:22:00;11.2;;;10.3;;
64018;SDS011;66942;52.138;5.216;2023-03-01T10:23:45;10.9;;;10.1;;
64018;SDS011;66942;52.138;5.216;2023-03-01T10:27:22;10.6;;;9.81;;
64018;SDS011;66942;52.138;5.216;2023-03-01T10:29:01;10.3;;;9.5;;
64018;SDS011;66942;52.138;5.216;2023-03-01T10:30:40;11.7;;;10.8;;
64018;SDS011;66942;52.138;5.216;2023-03-01T10:32:17;12.1;;;11.2;;
64018;SDS011;66942;52.138;5.216;2023-03-01T10:33:54;12.1;;;11.1;;
64018;SDS011;66942;52.138;5.216;2023-03-01T10:37:10;10.9;;;10.1;;
64018;SDS011;66942;52.138;5.216;2023-03-01T10:38:49;11.0;;;10.0;;
64018;SDS011;66942;52.138;5.216;2023-03-01T10:40:27;11.5;;;10.6;;
64018;SDS011;66942;52.138;5.216;2023-03-01T10:43:54;10.7;;;9.9;;
64018;SDS011;66942;52.138;5.216;2023-03-01T10:45:33;10.3;;;9.6;;
64018;SDS011;66942;52.138;5.216;2023-03-01T10:47:13;10.4;;;9.81;;
64018;SDS011;66942;52.138;5.216;2023-03-01T10:49:25;10.0;;;9.31;;
64018;SDS011;66942;52.138;5.216;2023-03-01T10:51:05;9.5;;;8.71;;
64018;SDS011;66942;52.138;5.216;2023-03-01T10:52:42;8.0;;;7.5;;
64018;SDS011;66942;52.138;5.216;2023-03-01T10:56:10;7.7;;;7.2;;
64018;SDS011;66942;52.138;5.216;2023-03-01T10:57:48;7.8;;;7.2;;
64018;SDS011;66942;52.138;5.216;2023-03-01T10:59:26;7.8;;;7.2;;
64018;SDS011;66942;52.138;5.216;2023-03-01T11:01:09;7.8;;;7.3;;
64018;SDS011;66942;52.138;5.216;2023-03-01T11:04:56;8.1;;;7.4;;
64018;SDS011;66942;52.138;5.216;2023-03-01T11:06:57;8.0;;;7.5;;
64018;SDS011;66942;52.138;5.216;2023-03-01T11:08:37;7.9;;;7.4;;
64018;SDS011;66942;52.138;5.216;2023-03-01T11:10:17;8.5;;;7.9;;
64018;SDS011;66942;52.138;5.216;2023-03-01T11:11:57;8.5;;;7.8;;
64018;SDS011;66942;52.138;5.216;2023-03-01T11:13:36;8.2;;;7.7;;
64018;SDS011;66942;52.138;5.216;2023-03-01T11:17:05;8.0;;;7.4;;
64018;SDS011;66942;52.138;5.216;2023-03-01T11:18:55;7.8;;;7.3;;
64018;SDS011;66942;52.138;5.216;2023-03-01T11:20:33;7.7;;;7.1;;
64018;SDS011;66942;52.138;5.216;2023-03-01T11:22:12;8.1;;;7.6;;
64018;SDS011;66942;52.138;5.216;2023-03-01T11:25:31;8.71;;;7.9;;
64018;SDS011;66942;52.138;5.216;2023-03-01T11:27:15;9.81;;;9.1;;
64018;SDS011;66942;52.138;5.216;2023-03-01T11:29:00;9.6;;;8.9;;
64018;SDS011;66942;52.138;5.216;2023-03-01T11:30:43;9.81;;;9.1;;
64018;SDS011;66942;52.138;5.216;2023-03-01T11:32:27;9.5;;;8.81;;
64018;SDS011;66942;52.138;5.216;2023-03-01T11:36:26;8.31;;;7.7;;
64018;SDS011;66942;52.138;5.216;2023-03-01T11:38:12;7.0;;;6.5;;
64018;SDS011;66942;52.138;5.216;2023-03-01T11:39:58;6.3;;;5.8;;
64018;SDS011;66942;52.138;5.216;2023-03-01T11:41:42;6.1;;;5.6;;
64018;SDS011;66942;52.138;5.216;2023-03-01T11:43:26;6.2;;;5.8;;
64018;SDS011;66942;52.138;5.216;2023-03-01T11:45:10;6.4;;;5.9;;
64018;SDS011;66942;52.138;5.216;2023-03-01T11:49:16;5.8;;;5.5;;
64018;SDS011;66942;52.138;5.216;2023-03-01T11:52:17;6.4;;;6.0;;
64018;SDS011;66942;52.138;5.216;2023-03-01T11:54:13;6.5;;;5.9;;
64018;SDS011;66942;52.138;5.216;2023-03-01T11:56:03;6.7;;;6.2;;
64018;SDS011;66942;52.138;5.216;2023-03-01T11:57:57;6.3;;;5.7;;
64018;SDS011;66942;52.138;5.216;2023-03-01T12:00:02;5.7;;;5.3;;
64018;SDS011;66942;52.138;5.216;2023-03-01T12:02:07;5.8;;;5.3;;
64018;SDS011;66942;52.138;5.216;2023-03-01T12:05:02;5.3;;;4.91;;
64018;SDS011;66942;52.138;5.216;2023-03-01T12:07:56;4.91;;;4.61;;
64018;SDS011;66942;52.138;5.216;2023-03-01T12:09:47;4.8;;;4.41;;
64018;SDS011;66942;52.138;5.216;2023-03-01T12:11:39;5.6;;;5.2;;
64018;SDS011;66942;52.138;5.216;2023-03-01T12:13:42;5.5;;;5.11;;
64018;SDS011;66942;52.138;5.216;2023-03-01T12:15:58;5.2;;;4.91;;
64018;SDS011;66942;52.138;5.216;2023-03-01T12:17:55;5.6;;;5.11;;
64018;SDS011;66942;52.138;5.216;2023-03-01T12:19:54;6.0;;;5.5;;
64018;SDS011;66942;52.138;5.216;2023-03-01T12:21:53;5.5;;;5.11;;
64018;SDS011;66942;52.138;5.216;2023-03-01T12:24:10;5.8;;;5.3;;
64018;SDS011;66942;52.138;5.216;2023-03-01T12:26:57;5.3;;;5.0;;
64018;SDS011;66942;52.138;5.216;2023-03-01T12:31:03;5.9;;;5.6;;
64018;SDS011;66942;52.138;5.216;2023-03-01T12:33:49;6.6;;;6.1;;
64018;SDS011;66942;52.138;5.216;2023-03-01T12:35:36;6.7;;;6.2;;
64018;SDS011;66942;52.138;5.216;2023-03-01T12:37:29;7.1;;;6.7;;
64018;SDS011;66942;52.138;5.216;2023-03-01T12:41:33;6.8;;;6.3;;
64018;SDS011;66942;52.138;5.216;2023-03-01T12:43:48;8.6;;;6.2;;